createdAt,value
2023-05-19T04:23:38.472Z,9.30
2023-05-19T04:26:06.898Z,7.93
2023-05-19T04:28:36.735Z,7.83
2023-05-19T04:31:03.972Z,8.03
2023-05-19T04:33:31.155Z,7.93
2023-05-19T04:35:58.430Z,7.83
2023-05-19T04:38:25.660Z,8.33
2023-05-19T04:40:52.672Z,8.77
2023-05-19T04:43:22.400Z,8.13
2023-05-19T04:45:51.508Z,7.70
2023-05-19T04:48:21.858Z,8.23
2023-05-19T04:50:52.109Z,8.50
2023-05-19T04:53:19.378Z,8.10
2023-05-19T04:55:46.729Z,8.17
2023-05-19T04:58:14.961Z,8.23
2023-05-19T05:00:43.315Z,8.07
2023-05-19T05:03:10.431Z,8.13
2023-05-19T05:05:38.229Z,7.57
2023-05-19T05:08:05.921Z,9.00
2023-05-19T05:10:37.857Z,7.20
2023-05-19T05:13:10.502Z,7.93
2023-05-19T05:15:39.051Z,7.70
2023-05-19T05:18:06.458Z,7.80
2023-05-19T05:20:33.975Z,7.90
2023-05-19T05:23:02.124Z,7.73
2023-05-19T05:35:41.219Z,8.50
2023-05-19T05:38:11.658Z,8.60
2023-05-19T05:40:39.454Z,7.87
2023-05-19T05:43:06.515Z,7.50
2023-05-19T05:45:38.434Z,7.97
2023-05-19T05:48:08.314Z,7.67
2023-05-19T05:50:35.663Z,7.60
2023-05-19T05:53:08.670Z,7.50
2023-05-19T05:55:41.772Z,7.83
2023-05-19T05:58:11.233Z,8.07
2023-05-19T06:00:38.762Z,7.40
2023-05-19T06:03:05.950Z,8.17
2023-05-19T06:05:33.132Z,8.50
2023-05-19T06:08:00.167Z,7.57
2023-05-19T06:10:32.046Z,7.97
2023-05-19T06:12:59.747Z,7.20
2023-05-19T06:15:27.031Z,7.53
2023-05-19T06:18:04.459Z,8.10
2023-05-19T06:20:31.812Z,7.80
2023-05-19T06:23:00.907Z,7.87
2023-05-19T06:25:29.280Z,8.23
2023-05-19T06:27:57.444Z,8.20
2023-05-19T06:30:25.044Z,8.97
2023-05-19T06:33:21.710Z,7.60
2023-05-19T06:35:49.380Z,9.03
2023-05-19T06:38:16.639Z,7.67
2023-05-19T06:40:43.940Z,8.87
2023-05-19T06:43:11.241Z,8.53
2023-05-19T06:45:55.939Z,8.73
2023-05-19T06:48:26.082Z,8.10
2023-05-19T06:50:53.365Z,8.90
2023-05-19T06:53:23.661Z,8.33
2023-05-19T06:55:59.574Z,8.00
2023-05-19T06:58:30.963Z,8.83
2023-05-19T07:00:59.817Z,8.00
2023-05-19T07:03:31.794Z,8.27
2023-05-19T07:05:59.894Z,8.90
2023-05-19T07:08:28.014Z,7.90
2023-05-19T07:10:57.998Z,7.87
2023-05-19T07:13:27.489Z,9.07
2023-05-19T07:15:56.399Z,8.70
2023-05-19T07:18:24.503Z,9.20
2023-05-19T07:20:53.976Z,8.40
2023-05-19T07:23:21.383Z,8.93
2023-05-19T07:25:48.344Z,8.63
2023-05-19T07:28:15.638Z,8.40
2023-05-19T07:30:46.624Z,8.50
2023-05-19T07:33:14.477Z,9.03
2023-05-19T07:35:41.678Z,9.03
2023-05-19T07:38:11.633Z,8.60
2023-05-19T07:40:38.748Z,9.20
2023-05-19T07:43:06.020Z,9.40
2023-05-19T07:45:33.416Z,8.33
2023-05-19T07:48:00.763Z,8.77
2023-05-19T07:50:28.222Z,8.90
2023-05-19T07:52:55.494Z,8.10
2023-05-19T07:55:23.311Z,8.47
2023-05-19T07:57:51.021Z,8.93
2023-05-19T08:00:18.251Z,7.67
2023-05-19T08:02:45.780Z,8.90
2023-05-19T08:05:13.160Z,8.43
2023-05-19T08:07:40.127Z,8.33
2023-05-19T08:10:07.753Z,9.20
2023-05-19T08:12:34.688Z,8.43
2023-05-19T08:15:02.057Z,8.03
2023-05-19T08:17:31.361Z,7.37
2023-05-19T08:19:58.663Z,7.70
2023-05-19T08:22:26.152Z,9.97
2023-05-19T08:24:53.410Z,7.93
2023-05-19T08:27:22.812Z,8.50
2023-05-19T08:29:52.380Z,7.40
2023-05-19T08:32:19.809Z,8.30
2023-05-19T08:34:46.890Z,7.70
2023-05-19T08:37:13.921Z,9.33
2023-05-19T08:39:41.387Z,8.23
2023-05-19T08:42:10.003Z,7.97
2023-05-19T08:44:40.423Z,7.63
2023-05-19T08:47:12.929Z,8.07
2023-05-19T08:49:46.021Z,7.73
2023-05-19T08:52:52.857Z,8.87
2023-05-19T08:55:39.670Z,7.67
2023-05-19T08:58:07.896Z,7.87
2023-05-19T09:00:35.443Z,7.10
2023-05-19T09:03:17.436Z,7.83
2023-05-19T09:05:46.631Z,7.87
2023-05-19T09:08:14.158Z,8.13
2023-05-19T09:10:41.328Z,8.17
2023-05-19T09:13:11.569Z,8.03
2023-05-19T09:15:40.357Z,8.10
2023-05-19T09:18:17.241Z,8.00
2023-05-19T09:20:46.347Z,8.40
2023-05-19T09:23:17.776Z,8.47
2023-05-19T09:25:52.824Z,8.20
2023-05-19T09:28:33.307Z,8.73
2023-05-19T09:31:01.296Z,7.53
2023-05-19T09:33:29.419Z,7.67
2023-05-19T09:35:57.181Z,8.00
2023-05-19T09:38:27.129Z,7.90
2023-05-19T09:40:58.174Z,8.03
2023-05-19T09:43:33.766Z,8.43
2023-05-19T09:46:11.252Z,8.60
2023-05-19T09:48:40.311Z,8.10
2023-05-19T09:51:10.415Z,7.83
2023-05-19T09:53:38.986Z,7.57
2023-05-19T09:56:08.867Z,7.67
2023-05-19T09:58:37.482Z,7.63
2023-05-19T10:01:05.608Z,7.30
2023-05-19T10:03:34.177Z,7.57
2023-05-19T10:06:05.294Z,7.77
2023-05-19T10:08:34.299Z,7.40
2023-05-19T10:11:02.181Z,7.90
2023-05-19T10:13:31.044Z,7.70
2023-05-19T10:16:00.156Z,7.00
2023-05-19T10:18:29.574Z,7.33
2023-05-19T10:20:58.147Z,7.00
2023-05-19T10:23:25.656Z,7.50
2023-05-19T10:25:57.616Z,7.37
2023-05-19T10:28:28.320Z,7.50
2023-05-19T10:31:00.830Z,8.13
2023-05-19T10:33:47.332Z,7.57
2023-05-19T10:36:38.823Z,8.38
2023-05-19T10:39:24.362Z,7.60
2023-05-19T10:42:02.682Z,7.53
2023-05-19T10:45:07.457Z,7.87
2023-05-19T10:47:35.115Z,7.23
2023-05-19T10:50:04.426Z,7.47
2023-05-19T10:52:32.954Z,6.40
2023-05-19T10:55:01.214Z,7.47
2023-05-19T10:57:32.131Z,8.00
2023-05-19T11:00:06.487Z,6.77
2023-05-19T11:02:44.325Z,7.53
2023-05-19T11:05:18.332Z,7.90
2023-05-19T11:07:57.185Z,6.50
2023-05-19T11:10:25.124Z,9.97
2023-05-19T11:12:52.553Z,6.30
2023-05-19T11:15:26.471Z,6.93
2023-05-19T11:17:55.053Z,7.37
2023-05-19T11:20:22.955Z,6.43
2023-05-19T11:23:10.732Z,7.03
2023-05-19T11:25:43.416Z,7.07
2023-05-19T11:28:17.488Z,6.83
2023-05-19T11:30:46.545Z,7.30
2023-05-19T11:33:14.196Z,6.43
2023-05-19T11:35:42.809Z,6.23
2023-05-19T11:38:11.276Z,6.57
2023-05-19T11:40:39.259Z,7.00
2023-05-19T11:43:06.342Z,7.40
2023-05-19T11:45:34.676Z,6.77
2023-05-19T11:48:05.544Z,7.07
2023-05-19T11:50:33.467Z,6.53
2023-05-19T11:53:01.713Z,6.67
2023-05-19T11:55:29.629Z,6.80
2023-05-19T11:58:05.818Z,7.00
2023-05-19T12:00:39.557Z,6.70
2023-05-19T12:03:08.485Z,6.67
2023-05-19T12:05:45.733Z,6.70
2023-05-19T12:08:13.549Z,6.60
2023-05-19T12:10:41.397Z,6.70
2023-05-19T12:13:11.856Z,6.43
2023-05-19T12:15:39.421Z,7.70
2023-05-19T12:18:07.425Z,7.60
2023-05-19T12:20:38.021Z,7.30
2023-05-19T12:23:05.963Z,7.93
2023-05-19T12:25:38.571Z,7.40
2023-05-19T12:28:07.271Z,7.50
2023-05-19T12:30:35.281Z,6.73
2023-05-19T12:33:03.611Z,6.70
2023-05-19T12:35:34.077Z,6.30
2023-05-19T12:38:06.329Z,6.30
2023-05-19T12:40:35.103Z,6.10
2023-05-19T12:43:02.927Z,6.43
2023-05-19T12:45:37.333Z,6.80
2023-05-19T12:48:16.283Z,6.40
2023-05-19T12:50:45.660Z,6.00
2023-05-19T12:53:16.175Z,6.53
2023-05-19T12:55:46.787Z,7.50
2023-05-19T12:58:15.917Z,6.47
2023-05-19T13:00:45.440Z,5.80
2023-05-19T13:03:23.856Z,6.40
2023-05-19T13:06:00.794Z,6.73
2023-05-19T13:08:27.951Z,6.20
2023-05-19T13:10:56.116Z,6.40
2023-05-19T13:13:23.255Z,6.50
2023-05-19T13:15:50.380Z,6.30
2023-05-19T13:18:28.217Z,7.10
2023-05-19T13:21:05.807Z,6.87
2023-05-19T13:23:32.950Z,7.03
2023-05-19T13:26:00.535Z,7.07
2023-05-19T13:28:30.580Z,5.40
2023-05-19T13:30:58.984Z,5.60
2023-05-19T13:33:27.243Z,5.63
2023-05-19T13:35:54.339Z,6.03
2023-05-19T13:38:21.411Z,5.77
2023-05-19T13:40:48.451Z,5.87
2023-05-19T13:43:15.515Z,6.03
2023-05-19T13:45:45.000Z,6.37
2023-05-19T13:48:12.325Z,4.03
2023-05-19T13:50:39.708Z,4.07
2023-05-19T13:53:07.098Z,2.80
2023-05-19T13:55:34.287Z,2.47
2023-05-19T13:58:04.907Z,2.40
2023-05-19T14:00:33.031Z,2.93
2023-05-19T14:03:00.856Z,3.80
2023-05-19T14:05:29.139Z,3.27
2023-05-19T14:07:56.615Z,4.50
2023-05-19T14:10:23.738Z,4.43
2023-05-19T14:13:14.108Z,4.40
2023-05-19T14:15:39.434Z,4.70
2023-05-19T14:18:07.091Z,4.50
2023-05-19T14:20:35.411Z,5.60
2023-05-19T14:23:03.426Z,5.50
2023-05-19T14:25:31.071Z,5.30
2023-05-19T14:27:58.240Z,5.83
2023-05-19T14:30:25.825Z,7.30
2023-05-19T14:32:53.086Z,6.17
2023-05-19T14:35:20.819Z,5.70
2023-05-19T14:37:47.963Z,6.43
2023-05-19T14:40:15.284Z,6.73
2023-05-19T14:42:42.391Z,6.90
2023-05-19T14:45:10.003Z,6.60
2023-05-19T14:47:37.027Z,7.00
2023-05-19T14:50:04.517Z,6.00
2023-05-19T14:52:31.808Z,5.03
2023-05-19T14:54:59.281Z,7.33
2023-05-19T14:57:26.764Z,8.00
2023-05-19T14:59:53.708Z,7.57
2023-05-19T15:02:20.708Z,6.73
2023-05-19T15:04:47.993Z,8.60
2023-05-19T15:07:14.958Z,6.23
2023-05-19T15:09:42.111Z,7.10
2023-05-19T15:12:09.583Z,7.90
2023-05-19T15:14:36.709Z,8.40
2023-05-19T15:17:03.814Z,8.23
2023-05-19T15:19:31.057Z,8.83
2023-05-19T15:21:58.109Z,9.30
2023-05-19T15:24:25.160Z,8.07
2023-05-19T15:26:52.521Z,7.33
2023-05-19T15:29:19.984Z,8.00
2023-05-19T15:31:53.769Z,8.20
2023-05-19T15:34:21.282Z,8.13
2023-05-19T15:36:48.561Z,7.87
2023-05-19T15:39:15.762Z,5.97
2023-05-19T15:41:42.797Z,6.93
2023-05-19T15:44:09.845Z,6.90
2023-05-19T15:46:37.142Z,6.53
2023-05-19T15:49:04.286Z,6.53
2023-05-19T15:51:31.653Z,6.77
2023-05-19T15:53:58.758Z,6.80
2023-05-19T15:56:26.120Z,7.00
2023-05-19T15:58:53.310Z,6.73
2023-05-19T16:01:21.660Z,7.20
2023-05-19T16:03:49.133Z,8.07
2023-05-19T16:06:16.424Z,7.83
2023-05-19T16:08:43.478Z,8.13
2023-05-19T16:11:10.681Z,8.53
2023-05-19T16:13:37.965Z,8.20
2023-05-19T16:16:05.575Z,7.73
2023-05-19T16:18:33.108Z,7.47
2023-05-19T16:21:00.176Z,7.30
2023-05-19T16:23:27.653Z,7.60
2023-05-19T16:25:55.040Z,9.93
2023-05-19T16:28:23.905Z,10.00
2023-05-19T16:30:52.196Z,8.00
2023-05-19T16:33:19.418Z,8.53
2023-05-19T16:35:46.710Z,8.93
2023-05-19T16:38:13.854Z,9.50
2023-05-19T16:40:40.952Z,11.43
2023-05-19T16:43:08.083Z,10.43
2023-05-19T16:45:35.260Z,11.30
2023-05-19T16:48:02.774Z,9.10
2023-05-19T16:50:30.881Z,8.53
2023-05-19T16:53:08.864Z,8.90
2023-05-19T16:55:36.013Z,9.23
2023-05-19T16:58:02.973Z,8.13
2023-05-19T17:00:30.226Z,8.90
2023-05-19T17:02:57.592Z,7.20
2023-05-19T17:05:24.975Z,7.53
2023-05-19T17:07:52.017Z,7.37
2023-05-19T17:10:19.074Z,7.10
2023-05-19T17:12:47.588Z,7.00
2023-05-19T17:15:15.441Z,7.67
2023-05-19T17:17:42.766Z,7.53
2023-05-19T17:20:10.733Z,7.30
2023-05-19T17:22:37.844Z,7.73
2023-05-19T17:25:05.736Z,8.73
2023-05-19T17:27:33.055Z,8.40
2023-05-19T17:30:00.213Z,9.93
2023-05-19T17:32:29.020Z,8.90
2023-05-19T17:34:56.560Z,6.77
2023-05-19T17:37:25.732Z,7.23
2023-05-19T17:39:53.032Z,9.77
2023-05-19T17:42:20.223Z,9.50
2023-05-19T17:44:47.466Z,9.93
2023-05-19T17:47:14.570Z,10.90
2023-05-19T17:49:41.815Z,10.13
2023-05-19T17:52:09.628Z,9.37
2023-05-19T17:54:36.974Z,9.57
2023-05-19T17:57:11.356Z,10.23
2023-05-19T17:59:38.839Z,9.80
2023-05-19T18:02:07.300Z,11.10
2023-05-19T18:04:34.628Z,10.73
2023-05-19T18:07:03.636Z,8.50
2023-05-19T18:09:33.294Z,8.97
2023-05-19T18:12:02.470Z,9.40
2023-05-19T18:14:29.963Z,8.97
2023-05-19T18:16:56.981Z,8.50
2023-05-19T18:19:24.068Z,8.03
2023-05-19T18:21:51.530Z,7.73
2023-05-19T18:24:18.534Z,7.97
2023-05-19T18:26:45.765Z,7.13
2023-05-19T18:29:14.969Z,7.90
2023-05-19T18:31:42.215Z,8.93
2023-05-19T18:34:09.383Z,8.47
2023-05-19T18:36:36.423Z,7.53
2023-05-19T18:39:04.618Z,7.97
2023-05-19T18:41:32.178Z,8.33
2023-05-19T18:43:59.238Z,8.40
2023-05-19T18:46:26.468Z,8.17
2023-05-19T18:48:53.528Z,8.57
2023-05-19T18:51:21.776Z,8.77
2023-05-19T18:53:50.136Z,8.87
2023-05-19T18:56:26.712Z,8.33
2023-05-19T18:58:54.878Z,9.63
2023-05-19T19:01:24.746Z,8.83
2023-05-19T19:03:52.258Z,9.33
2023-05-19T19:06:20.896Z,9.13
2023-05-19T19:08:48.005Z,8.97
2023-05-19T19:11:15.762Z,8.87
2023-05-19T19:13:44.334Z,8.37
2023-05-19T19:16:11.379Z,8.37
2023-05-19T19:18:38.682Z,8.93
2023-05-19T19:21:06.061Z,9.37
2023-05-19T19:23:34.206Z,11.07
2023-05-19T19:26:01.337Z,8.83
2023-05-19T19:28:28.394Z,7.57
2023-05-19T19:30:55.523Z,8.30
2023-05-19T19:33:22.487Z,8.83
2023-05-19T19:35:49.481Z,8.00
2023-05-19T19:38:16.605Z,8.83
2023-05-19T19:40:43.703Z,8.93
2023-05-19T19:43:11.096Z,8.00
2023-05-19T19:45:41.702Z,10.37
2023-05-19T19:48:08.814Z,8.27
2023-05-19T19:50:36.504Z,8.90
2023-05-19T19:53:03.796Z,8.53
2023-05-19T19:55:30.938Z,8.03
2023-05-19T19:57:58.070Z,9.03
2023-05-19T20:00:25.149Z,8.70
2023-05-19T20:03:04.373Z,8.00
2023-05-19T20:05:32.891Z,8.23
2023-05-19T20:08:00.099Z,8.33
2023-05-19T20:10:27.334Z,7.77
2023-05-19T20:12:54.406Z,7.20
2023-05-19T20:15:21.429Z,6.63
2023-05-19T20:17:48.496Z,7.27
2023-05-19T20:20:15.640Z,6.47
2023-05-19T20:22:45.539Z,7.40
2023-05-19T20:25:15.186Z,8.90
2023-05-19T20:27:42.109Z,7.00
2023-05-19T20:30:09.457Z,6.73
2023-05-19T20:32:36.658Z,6.97
2023-05-19T20:35:03.900Z,6.57
2023-05-19T20:37:31.971Z,6.90
2023-05-19T20:39:58.952Z,7.10
2023-05-19T20:42:25.987Z,6.73
2023-05-19T20:44:53.064Z,6.73
2023-05-19T20:47:21.022Z,6.90
2023-05-19T20:49:48.470Z,7.77
2023-05-19T20:52:16.268Z,6.23
2023-05-19T20:54:43.705Z,7.37
2023-05-19T20:57:10.959Z,8.37
2023-05-19T20:59:38.567Z,6.23
2023-05-19T21:02:06.490Z,8.03
2023-05-19T21:04:34.478Z,8.23
2023-05-19T21:07:01.648Z,6.30
2023-05-19T21:09:28.646Z,7.40
2023-05-19T21:11:56.536Z,8.30
2023-05-19T21:14:25.485Z,6.90
2023-05-19T21:16:56.299Z,7.47
2023-05-19T21:19:23.536Z,7.50
2023-05-19T21:21:51.028Z,7.20
2023-05-19T21:24:17.962Z,7.87
2023-05-19T21:26:45.128Z,7.00
2023-05-19T21:29:12.327Z,10.43
2023-05-19T21:31:39.463Z,8.57
2023-05-19T21:34:09.613Z,8.60
2023-05-19T21:36:36.717Z,12.47
2023-05-19T21:39:04.628Z,7.97
2023-05-19T21:41:32.466Z,7.30
2023-05-19T21:43:59.825Z,8.30
2023-05-19T21:46:29.104Z,7.63
2023-05-19T21:48:56.461Z,8.33
2023-05-19T21:51:23.486Z,7.67
2023-05-19T21:53:50.633Z,7.83
2023-05-19T21:56:17.568Z,10.67
2023-05-19T21:58:44.590Z,15.07
2023-05-19T22:01:11.669Z,7.67
2023-05-19T22:03:38.812Z,8.57
2023-05-19T22:06:08.339Z,8.30
2023-05-19T22:08:35.788Z,9.83
2023-05-19T22:11:02.917Z,8.77
2023-05-19T22:13:30.344Z,8.43
2023-05-19T22:15:57.728Z,7.73
2023-05-19T22:18:24.779Z,8.37
2023-05-19T22:20:51.747Z,8.30
2023-05-19T22:23:18.761Z,7.20
2023-05-19T22:25:45.692Z,7.03
2023-05-19T22:28:13.099Z,7.57
2023-05-19T22:30:42.196Z,6.93
2023-05-19T22:33:10.087Z,8.20
2023-05-19T22:35:37.268Z,7.13
2023-05-19T22:38:04.228Z,7.50
2023-05-19T22:40:32.539Z,7.33
2023-05-19T22:42:59.741Z,7.23
2023-05-19T22:45:26.771Z,6.83
2023-05-19T22:47:55.238Z,7.90
2023-05-19T22:50:22.393Z,7.93
2023-05-19T22:52:49.397Z,7.43
2023-05-19T22:55:16.555Z,8.20
2023-05-19T22:57:43.554Z,7.80
